This is the latest recevied weather packets stored in our database for station/object DH1FR-13. If no packets are shown the sender has not sent any weather packets the latest 10 day(s).
| Time | Temp. | Humidity | Pressure | Rain* | Wind** | Luminosity | Snow |
|---|---|---|---|---|---|---|---|
| 1777665600 | 12.22° C | 69% | 1027.3 hPa | 0 mm | 0 m/s | - | - |
| 1777665001 | 12.78° C | 69% | 1027.4 hPa | 0 mm | 0 m/s | - | - |
| 1777664401 | 13.33° C | 66% | 1027.3 hPa | 0 mm | 0 m/s | - | - |
| 1777663801 | 14.44° C | 61% | 1027.3 hPa | 0 mm | 0 m/s | - | - |
| 1777663201 | 15° C | 59% | 1027.3 hPa | 0 mm | 0 m/s | - | - |
| 1777662601 | 16.11° C | 55% | 1027.2 hPa | 0 mm | 0 m/s | - | - |
| 1777662001 | 16.67° C | 53% | 1026.9 hPa | 0 mm | 0 m/s | - | - |
| 1777661401 | 17.22° C | 50% | 1026.8 hPa | 0 mm | 0 m/s | - | - |
| 1777660201 | 19.44° C | 43% | 1026.8 hPa | 0 mm | 0 m/s | - | - |
| 1777659001 | 20.56° C | 41% | 1026.8 hPa | 0 mm | 0 m/s | - | - |
| 1777658401 | 20.56° C | 40% | 1026.8 hPa | 0 mm | 0 m/s | - | - |
| 1777657801 | 21.67° C | 37% | 1026.8 hPa | 0 mm | 0 m/s | - | - |
| 1777657201 | 22.22° C | 36% | 1026.8 hPa | 0 mm | 0 m/s | - | - |
| 1777656601 | 21.67° C | 36% | 1026.9 hPa | 0 mm | 0 m/s | - | - |
| 1777656001 | 21.67° C | 36% | 1026.9 hPa | 0 mm | 0 m/s | - | - |
| 1777655401 | 22.22° C | 36% | 1026.8 hPa | 0 mm | 0 m/s | - | - |
| 1777654801 | 22.22° C | 35% | 1027 hPa | 0 mm | 0 m/s | - | - |
| 1777654201 | 22.22° C | 35% | 1027 hPa | 0 mm | 0 m/s | - | - |
| 1777653600 | 22.78° C | 35% | 1027.3 hPa | 0 mm | 0 m/s | - | - |
| 1777653001 | 22.78° C | 34% | 1027.2 hPa | 0 mm | 0 m/s | - | - |
| 1777652401 | 22.78° C | 34% | 1027.5 hPa | 0 mm | 0 m/s | - | - |
| 1777651801 | 22.78° C | 34% | 1027.5 hPa | 0 mm | 0 m/s | - | - |
| 1777651201 | 22.78° C | 34% | 1027.5 hPa | 0 mm | 0 m/s | - | - |
| 1777650601 | 22.78° C | 34% | 1027.8 hPa | 0 mm | 0 m/s | - | - |
| 1777650001 | 22.78° C | 35% | 1027.7 hPa | 0 mm | 0 m/s | - | - |
* Rain latest hour (hover to see other rain measurements)
** Current wind speed in m/s (hover to see current wind gust speed)